This is the latest recevied weather packets stored in our database for station/object N5BTB-10. If no packets are shown the sender has not sent any weather packets the latest 10 day(s).
| Time | Temp. | Humidity | Pressure | Rain* | Wind** | Luminosity | Snow |
|---|---|---|---|---|---|---|---|
| 1778234405 | 7.78° C | 87% | - | 0 mm | - | - | - |
| 1778230806 | 7.78° C | 86% | - | 0 mm | - | - | - |
| 1778227206 | 8.33° C | 84% | - | 0 mm | - | - | - |
| 1778223606 | 8.89° C | 81% | - | 0 mm | - | - | - |
| 1778220006 | 10° C | 76% | - | 0 mm | - | - | - |
| 1778216406 | 11.11° C | 72% | - | 0 mm | - | - | - |
| 1778212806 | 12.22° C | 69% | - | 0 mm | - | - | - |
| 1778209206 | 15° C | 68% | - | 0 mm | - | - | - |
| 1778205606 | 16.11° C | 61% | - | 0 mm | - | - | - |
| 1778202006 | 18.33° C | 51% | - | 0 mm | - | - | - |
| 1778198406 | 20° C | 43% | - | 0 mm | - | - | - |
| 1778194806 | 24.44° C | 34% | - | 0 mm | - | - | - |
| 1778191206 | 23.33° C | 35% | - | 0 mm | - | - | - |
| 1778187605 | 19.44° C | 42% | - | 0 mm | - | - | - |
| 1778184006 | 19.44° C | 47% | - | 0 mm | - | - | - |
| 1778180406 | 18.89° C | 43% | - | 0 mm | - | - | - |
| 1778176806 | 15.56° C | 56% | - | 0 mm | - | - | - |
| 1778173205 | 12.78° C | 57% | - | 0 mm | - | - | - |
| 1778169605 | 11.67° C | 62% | - | 0 mm | - | - | - |
| 1778166005 | 10° C | 68% | - | 0 mm | - | - | - |
| 1778162405 | 9.44° C | 74% | - | 0 mm | - | - | - |
| 1778158805 | 8.89° C | 75% | - | 0 mm | - | - | - |
| 1778155205 | 8.89° C | 78% | - | 0 mm | - | - | - |
| 1778151605 | 9.44° C | 76% | - | 0 mm | - | - | - |
| 1778148005 | 9.44° C | 76% | - | 0 mm | - | - | - |
* Rain latest hour (hover to see other rain measurements)
** Current wind speed in m/s (hover to see current wind gust speed)